sensor_id;sensor_type;location;lat;lon;timestamp;P1;durP1;ratioP1;P2;durP2;ratioP2
4595;SDS011;2310;49.978;8.742;2023-04-15T00:03:41;9.23;;;7.50;;
4595;SDS011;2310;49.978;8.742;2023-04-15T00:07:43;9.13;;;7.47;;
4595;SDS011;2310;49.978;8.742;2023-04-15T00:11:46;10.53;;;7.83;;
4595;SDS011;2310;49.978;8.742;2023-04-15T00:15:47;8.80;;;7.90;;
4595;SDS011;2310;49.978;8.742;2023-04-15T00:19:49;11.93;;;8.57;;
4595;SDS011;2310;49.978;8.742;2023-04-15T00:23:50;11.70;;;8.63;;
4595;SDS011;2310;49.978;8.742;2023-04-15T00:27:53;9.13;;;7.77;;
4595;SDS011;2310;49.978;8.742;2023-04-15T00:31:55;9.50;;;8.50;;
4595;SDS011;2310;49.978;8.742;2023-04-15T00:36:00;11.47;;;7.50;;
4595;SDS011;2310;49.978;8.742;2023-04-15T00:40:02;10.87;;;7.20;;
4595;SDS011;2310;49.978;8.742;2023-04-15T00:44:07;8.80;;;7.20;;
4595;SDS011;2310;49.978;8.742;2023-04-15T00:48:09;8.47;;;7.27;;
4595;SDS011;2310;49.978;8.742;2023-04-15T00:52:12;8.60;;;6.47;;
4595;SDS011;2310;49.978;8.742;2023-04-15T00:56:14;9.93;;;6.77;;
4595;SDS011;2310;49.978;8.742;2023-04-15T01:00:16;10.77;;;6.50;;
4595;SDS011;2310;49.978;8.742;2023-04-15T01:04:20;7.37;;;6.33;;
4595;SDS011;2310;49.978;8.742;2023-04-15T01:08:22;8.70;;;6.77;;
4595;SDS011;2310;49.978;8.742;2023-04-15T01:12:26;7.60;;;6.77;;
4595;SDS011;2310;49.978;8.742;2023-04-15T01:16:28;9.37;;;6.80;;
4595;SDS011;2310;49.978;8.742;2023-04-15T01:20:30;8.07;;;6.50;;
4595;SDS011;2310;49.978;8.742;2023-04-15T01:24:32;8.17;;;7.07;;
4595;SDS011;2310;49.978;8.742;2023-04-15T01:28:34;11.03;;;7.73;;
4595;SDS011;2310;49.978;8.742;2023-04-15T01:32:36;10.30;;;6.90;;
4595;SDS011;2310;49.978;8.742;2023-04-15T01:36:38;8.10;;;6.77;;
4595;SDS011;2310;49.978;8.742;2023-04-15T01:40:39;7.30;;;6.60;;
4595;SDS011;2310;49.978;8.742;2023-04-15T01:44:40;10.27;;;8.00;;
4595;SDS011;2310;49.978;8.742;2023-04-15T01:48:42;8.63;;;7.07;;
4595;SDS011;2310;49.978;8.742;2023-04-15T01:52:43;9.47;;;7.80;;
4595;SDS011;2310;49.978;8.742;2023-04-15T01:56:44;7.20;;;6.37;;
4595;SDS011;2310;49.978;8.742;2023-04-15T02:00:46;11.53;;;7.13;;
4595;SDS011;2310;49.978;8.742;2023-04-15T02:04:47;10.97;;;8.10;;
4595;SDS011;2310;49.978;8.742;2023-04-15T02:08:49;9.57;;;7.90;;
4595;SDS011;2310;49.978;8.742;2023-04-15T02:12:50;8.07;;;7.20;;
4595;SDS011;2310;49.978;8.742;2023-04-15T02:16:51;12.20;;;8.53;;
4595;SDS011;2310;49.978;8.742;2023-04-15T02:20:53;11.30;;;7.53;;
4595;SDS011;2310;49.978;8.742;2023-04-15T02:24:56;9.47;;;7.03;;
4595;SDS011;2310;49.978;8.742;2023-04-15T02:28:58;12.00;;;7.20;;
4595;SDS011;2310;49.978;8.742;2023-04-15T02:33:00;12.53;;;7.20;;
4595;SDS011;2310;49.978;8.742;2023-04-15T02:37:01;8.20;;;7.40;;
4595;SDS011;2310;49.978;8.742;2023-04-15T02:41:03;9.93;;;8.60;;
4595;SDS011;2310;49.978;8.742;2023-04-15T02:45:05;10.43;;;8.50;;
4595;SDS011;2310;49.978;8.742;2023-04-15T02:49:07;8.47;;;7.13;;
4595;SDS011;2310;49.978;8.742;2023-04-15T02:53:09;10.47;;;8.70;;
4595;SDS011;2310;49.978;8.742;2023-04-15T02:57:10;11.87;;;8.00;;
4595;SDS011;2310;49.978;8.742;2023-04-15T03:01:12;10.53;;;7.93;;
4595;SDS011;2310;49.978;8.742;2023-04-15T03:05:14;10.70;;;8.10;;
4595;SDS011;2310;49.978;8.742;2023-04-15T03:09:16;8.97;;;7.33;;
4595;SDS011;2310;49.978;8.742;2023-04-15T03:13:17;10.23;;;8.40;;
4595;SDS011;2310;49.978;8.742;2023-04-15T03:17:19;9.43;;;7.90;;
4595;SDS011;2310;49.978;8.742;2023-04-15T03:21:21;8.97;;;7.80;;
4595;SDS011;2310;49.978;8.742;2023-04-15T03:25:23;10.63;;;7.87;;
4595;SDS011;2310;49.978;8.742;2023-04-15T03:29:25;9.83;;;8.27;;
4595;SDS011;2310;49.978;8.742;2023-04-15T03:33:26;10.27;;;8.60;;
4595;SDS011;2310;49.978;8.742;2023-04-15T03:37:29;10.30;;;7.53;;
4595;SDS011;2310;49.978;8.742;2023-04-15T03:41:30;9.33;;;7.87;;
4595;SDS011;2310;49.978;8.742;2023-04-15T03:45:32;10.43;;;7.67;;
4595;SDS011;2310;49.978;8.742;2023-04-15T03:49:34;9.63;;;8.07;;
4595;SDS011;2310;49.978;8.742;2023-04-15T03:53:36;9.30;;;8.30;;
4595;SDS011;2310;49.978;8.742;2023-04-15T03:57:38;9.50;;;7.80;;
4595;SDS011;2310;49.978;8.742;2023-04-15T04:01:39;10.00;;;8.47;;
4595;SDS011;2310;49.978;8.742;2023-04-15T04:05:41;9.03;;;8.13;;
4595;SDS011;2310;49.978;8.742;2023-04-15T04:09:44;11.97;;;8.90;;
4595;SDS011;2310;49.978;8.742;2023-04-15T04:13:47;9.50;;;7.70;;
4595;SDS011;2310;49.978;8.742;2023-04-15T04:17:48;8.80;;;7.90;;
4595;SDS011;2310;49.978;8.742;2023-04-15T04:21:50;9.27;;;7.53;;
4595;SDS011;2310;49.978;8.742;2023-04-15T04:25:51;9.47;;;8.50;;
4595;SDS011;2310;49.978;8.742;2023-04-15T04:29:53;8.97;;;8.07;;
4595;SDS011;2310;49.978;8.742;2023-04-15T04:33:55;12.77;;;9.73;;
4595;SDS011;2310;49.978;8.742;2023-04-15T04:37:56;10.70;;;8.73;;
4595;SDS011;2310;49.978;8.742;2023-04-15T04:41:58;9.17;;;8.27;;
4595;SDS011;2310;49.978;8.742;2023-04-15T04:45:59;10.27;;;8.00;;
4595;SDS011;2310;49.978;8.742;2023-04-15T04:50:01;9.70;;;8.50;;
4595;SDS011;2310;49.978;8.742;2023-04-15T04:54:03;9.70;;;8.50;;
4595;SDS011;2310;49.978;8.742;2023-04-15T04:58:04;12.40;;;10.03;;
4595;SDS011;2310;49.978;8.742;2023-04-15T05:02:06;12.00;;;10.70;;
4595;SDS011;2310;49.978;8.742;2023-04-15T05:06:09;13.27;;;11.57;;
4595;SDS011;2310;49.978;8.742;2023-04-15T05:10:10;11.20;;;9.60;;
4595;SDS011;2310;49.978;8.742;2023-04-15T05:14:11;9.33;;;8.33;;
4595;SDS011;2310;49.978;8.742;2023-04-15T05:18:13;10.07;;;9.00;;
4595;SDS011;2310;49.978;8.742;2023-04-15T05:22:14;10.50;;;9.40;;
4595;SDS011;2310;49.978;8.742;2023-04-15T05:26:16;10.93;;;8.97;;
4595;SDS011;2310;49.978;8.742;2023-04-15T05:30:17;12.27;;;9.27;;
4595;SDS011;2310;49.978;8.742;2023-04-15T05:34:19;9.73;;;8.73;;
4595;SDS011;2310;49.978;8.742;2023-04-15T05:38:20;13.70;;;8.43;;
4595;SDS011;2310;49.978;8.742;2023-04-15T05:42:21;9.50;;;8.17;;
4595;SDS011;2310;49.978;8.742;2023-04-15T05:46:23;8.80;;;7.43;;
4595;SDS011;2310;49.978;8.742;2023-04-15T05:50:24;13.87;;;12.10;;
4595;SDS011;2310;49.978;8.742;2023-04-15T05:54:26;14.90;;;12.13;;
4595;SDS011;2310;49.978;8.742;2023-04-15T05:58:27;15.20;;;13.50;;
4595;SDS011;2310;49.978;8.742;2023-04-15T06:02:29;20.03;;;12.70;;
4595;SDS011;2310;49.978;8.742;2023-04-15T06:06:31;16.07;;;13.03;;
4595;SDS011;2310;49.978;8.742;2023-04-15T06:10:34;11.57;;;10.23;;
4595;SDS011;2310;49.978;8.742;2023-04-15T06:14:37;10.53;;;9.17;;
4595;SDS011;2310;49.978;8.742;2023-04-15T06:18:39;9.27;;;8.27;;
4595;SDS011;2310;49.978;8.742;2023-04-15T06:22:40;12.30;;;8.80;;
4595;SDS011;2310;49.978;8.742;2023-04-15T06:26:42;9.80;;;7.87;;
4595;SDS011;2310;49.978;8.742;2023-04-15T06:30:43;10.33;;;9.03;;
4595;SDS011;2310;49.978;8.742;2023-04-15T06:34:44;11.57;;;10.10;;
4595;SDS011;2310;49.978;8.742;2023-04-15T06:38:45;10.83;;;9.50;;
4595;SDS011;2310;49.978;8.742;2023-04-15T06:42:47;10.47;;;8.20;;
4595;SDS011;2310;49.978;8.742;2023-04-15T06:46:48;12.93;;;10.40;;
4595;SDS011;2310;49.978;8.742;2023-04-15T06:50:50;12.80;;;9.20;;
4595;SDS011;2310;49.978;8.742;2023-04-15T06:54:52;11.80;;;9.30;;
4595;SDS011;2310;49.978;8.742;2023-04-15T06:58:53;10.70;;;9.00;;
4595;SDS011;2310;49.978;8.742;2023-04-15T07:02:55;9.87;;;8.87;;
4595;SDS011;2310;49.978;8.742;2023-04-15T07:06:56;12.00;;;8.80;;
4595;SDS011;2310;49.978;8.742;2023-04-15T07:10:58;12.20;;;9.50;;
4595;SDS011;2310;49.978;8.742;2023-04-15T07:15:00;10.63;;;9.53;;
4595;SDS011;2310;49.978;8.742;2023-04-15T07:19:02;11.87;;;9.37;;
4595;SDS011;2310;49.978;8.742;2023-04-15T07:23:04;10.43;;;9.30;;
4595;SDS011;2310;49.978;8.742;2023-04-15T07:27:06;9.93;;;9.03;;
4595;SDS011;2310;49.978;8.742;2023-04-15T07:31:07;10.23;;;8.87;;
4595;SDS011;2310;49.978;8.742;2023-04-15T07:35:09;9.97;;;8.87;;
4595;SDS011;2310;49.978;8.742;2023-04-15T07:39:10;13.73;;;9.00;;
4595;SDS011;2310;49.978;8.742;2023-04-15T07:43:12;10.90;;;9.17;;
4595;SDS011;2310;49.978;8.742;2023-04-15T07:47:13;10.50;;;9.40;;
4595;SDS011;2310;49.978;8.742;2023-04-15T07:51:15;11.47;;;9.80;;
4595;SDS011;2310;49.978;8.742;2023-04-15T07:55:17;12.03;;;10.73;;
4595;SDS011;2310;49.978;8.742;2023-04-15T07:59:20;13.13;;;11.23;;
4595;SDS011;2310;49.978;8.742;2023-04-15T08:03:24;13.13;;;11.67;;
4595;SDS011;2310;49.978;8.742;2023-04-15T08:07:29;12.47;;;11.17;;
4595;SDS011;2310;49.978;8.742;2023-04-15T08:11:31;13.33;;;10.57;;
4595;SDS011;2310;49.978;8.742;2023-04-15T08:15:32;11.90;;;10.60;;
4595;SDS011;2310;49.978;8.742;2023-04-15T08:19:33;10.13;;;9.13;;
4595;SDS011;2310;49.978;8.742;2023-04-15T08:23:35;9.30;;;8.30;;
4595;SDS011;2310;49.978;8.742;2023-04-15T08:27:37;10.27;;;8.57;;
4595;SDS011;2310;49.978;8.742;2023-04-15T08:31:38;10.20;;;8.37;;
4595;SDS011;2310;49.978;8.742;2023-04-15T08:35:40;9.83;;;8.47;;
4595;SDS011;2310;49.978;8.742;2023-04-15T08:39:41;8.70;;;7.23;;
4595;SDS011;2310;49.978;8.742;2023-04-15T08:43:50;8.13;;;7.30;;
4595;SDS011;2310;49.978;8.742;2023-04-15T08:47:49;8.07;;;5.83;;
4595;SDS011;2310;49.978;8.742;2023-04-15T08:51:54;7.27;;;5.20;;
4595;SDS011;2310;49.978;8.742;2023-04-15T08:55:57;6.00;;;4.70;;
4595;SDS011;2310;49.978;8.742;2023-04-15T09:00:01;6.97;;;5.30;;
4595;SDS011;2310;49.978;8.742;2023-04-15T09:04:05;6.57;;;4.07;;
4595;SDS011;2310;49.978;8.742;2023-04-15T09:08:08;4.70;;;4.10;;
4595;SDS011;2310;49.978;8.742;2023-04-15T09:12:10;4.50;;;3.60;;
4595;SDS011;2310;49.978;8.742;2023-04-15T09:16:12;5.10;;;3.80;;
4595;SDS011;2310;49.978;8.742;2023-04-15T09:20:14;4.60;;;3.03;;
4595;SDS011;2310;49.978;8.742;2023-04-15T09:24:16;4.47;;;2.70;;
4595;SDS011;2310;49.978;8.742;2023-04-15T09:28:22;4.50;;;3.50;;
4595;SDS011;2310;49.978;8.742;2023-04-15T09:32:25;5.30;;;4.57;;
4595;SDS011;2310;49.978;8.742;2023-04-15T09:36:27;4.90;;;3.20;;
4595;SDS011;2310;49.978;8.742;2023-04-15T09:40:37;4.70;;;3.20;;
4595;SDS011;2310;49.978;8.742;2023-04-15T09:44:42;4.53;;;3.30;;
4595;SDS011;2310;49.978;8.742;2023-04-15T09:48:44;4.60;;;3.70;;
4595;SDS011;2310;49.978;8.742;2023-04-15T09:52:46;4.53;;;3.23;;
4595;SDS011;2310;49.978;8.742;2023-04-15T09:56:48;3.93;;;2.90;;
4595;SDS011;2310;49.978;8.742;2023-04-15T10:00:50;5.67;;;3.70;;
4595;SDS011;2310;49.978;8.742;2023-04-15T10:04:53;9.90;;;4.10;;
4595;SDS011;2310;49.978;8.742;2023-04-15T10:08:54;5.80;;;4.17;;
4595;SDS011;2310;49.978;8.742;2023-04-15T10:12:57;5.90;;;3.17;;
4595;SDS011;2310;49.978;8.742;2023-04-15T10:17:00;8.63;;;3.70;;
4595;SDS011;2310;49.978;8.742;2023-04-15T10:21:03;5.20;;;2.90;;
4595;SDS011;2310;49.978;8.742;2023-04-15T10:25:05;5.43;;;3.00;;
4595;SDS011;2310;49.978;8.742;2023-04-15T10:29:07;4.27;;;2.93;;
4595;SDS011;2310;49.978;8.742;2023-04-15T10:33:10;3.97;;;2.70;;
4595;SDS011;2310;49.978;8.742;2023-04-15T10:37:18;4.57;;;2.57;;
4595;SDS011;2310;49.978;8.742;2023-04-15T10:45:24;5.40;;;2.50;;
4595;SDS011;2310;49.978;8.742;2023-04-15T10:49:27;4.43;;;3.20;;
4595;SDS011;2310;49.978;8.742;2023-04-15T10:53:28;4.43;;;3.10;;
4595;SDS011;2310;49.978;8.742;2023-04-15T10:57:34;4.00;;;2.90;;
4595;SDS011;2310;49.978;8.742;2023-04-15T11:01:50;5.30;;;3.53;;
4595;SDS011;2310;49.978;8.742;2023-04-15T11:05:56;3.70;;;2.47;;
4595;SDS011;2310;49.978;8.742;2023-04-15T11:09:58;3.90;;;2.87;;
4595;SDS011;2310;49.978;8.742;2023-04-15T11:13:59;4.43;;;3.00;;
4595;SDS011;2310;49.978;8.742;2023-04-15T11:18:09;5.70;;;2.80;;
4595;SDS011;2310;49.978;8.742;2023-04-15T11:22:28;4.47;;;2.93;;
4595;SDS011;2310;49.978;8.742;2023-04-15T11:26:29;4.97;;;3.37;;
4595;SDS011;2310;49.978;8.742;2023-04-15T11:30:31;4.67;;;3.20;;
4595;SDS011;2310;49.978;8.742;2023-04-15T11:34:34;4.87;;;3.63;;
4595;SDS011;2310;49.978;8.742;2023-04-15T11:38:41;4.80;;;3.43;;
4595;SDS011;2310;49.978;8.742;2023-04-15T11:42:44;5.20;;;3.20;;
4595;SDS011;2310;49.978;8.742;2023-04-15T11:46:48;4.30;;;3.57;;
4595;SDS011;2310;49.978;8.742;2023-04-15T11:50:54;4.93;;;2.90;;
4595;SDS011;2310;49.978;8.742;2023-04-15T11:55:01;4.13;;;3.20;;
4595;SDS011;2310;49.978;8.742;2023-04-15T11:59:04;5.20;;;4.10;;
4595;SDS011;2310;49.978;8.742;2023-04-15T12:07:58;5.40;;;3.97;;
4595;SDS011;2310;49.978;8.742;2023-04-15T12:12:02;5.67;;;4.97;;
4595;SDS011;2310;49.978;8.742;2023-04-15T12:16:03;5.80;;;4.27;;
4595;SDS011;2310;49.978;8.742;2023-04-15T12:20:05;7.17;;;5.33;;
4595;SDS011;2310;49.978;8.742;2023-04-15T12:24:08;6.80;;;5.70;;
4595;SDS011;2310;49.978;8.742;2023-04-15T12:28:11;7.00;;;5.50;;
4595;SDS011;2310;49.978;8.742;2023-04-15T12:32:13;6.13;;;4.90;;
4595;SDS011;2310;49.978;8.742;2023-04-15T12:36:16;5.80;;;4.27;;
4595;SDS011;2310;49.978;8.742;2023-04-15T12:40:18;6.30;;;4.17;;
4595;SDS011;2310;49.978;8.742;2023-04-15T12:44:21;5.10;;;4.27;;
4595;SDS011;2310;49.978;8.742;2023-04-15T12:48:23;5.47;;;4.07;;
4595;SDS011;2310;49.978;8.742;2023-04-15T12:52:25;5.43;;;4.77;;
4595;SDS011;2310;49.978;8.742;2023-04-15T12:56:26;6.00;;;4.77;;
4595;SDS011;2310;49.978;8.742;2023-04-15T13:00:27;6.27;;;5.67;;
4595;SDS011;2310;49.978;8.742;2023-04-15T13:04:29;8.20;;;5.50;;
4595;SDS011;2310;49.978;8.742;2023-04-15T13:08:32;5.13;;;4.10;;
4595;SDS011;2310;49.978;8.742;2023-04-15T13:12:34;6.23;;;5.00;;
4595;SDS011;2310;49.978;8.742;2023-04-15T13:16:36;9.83;;;8.80;;
4595;SDS011;2310;49.978;8.742;2023-04-15T13:20:37;6.10;;;4.60;;
4595;SDS011;2310;49.978;8.742;2023-04-15T13:24:38;4.77;;;4.20;;
4595;SDS011;2310;49.978;8.742;2023-04-15T13:28:40;5.23;;;2.90;;
4595;SDS011;2310;49.978;8.742;2023-04-15T13:32:41;3.63;;;2.40;;
4595;SDS011;2310;49.978;8.742;2023-04-15T13:36:43;3.10;;;2.00;;
4595;SDS011;2310;49.978;8.742;2023-04-15T13:40:44;3.50;;;2.20;;
4595;SDS011;2310;49.978;8.742;2023-04-15T13:44:45;4.80;;;3.60;;
4595;SDS011;2310;49.978;8.742;2023-04-15T13:48:46;8.10;;;5.43;;
4595;SDS011;2310;49.978;8.742;2023-04-15T13:52:48;5.80;;;4.00;;
4595;SDS011;2310;49.978;8.742;2023-04-15T13:56:49;4.70;;;2.80;;
4595;SDS011;2310;49.978;8.742;2023-04-15T14:00:50;5.20;;;2.50;;
4595;SDS011;2310;49.978;8.742;2023-04-15T14:04:51;3.67;;;2.00;;
4595;SDS011;2310;49.978;8.742;2023-04-15T14:08:53;3.50;;;1.50;;
4595;SDS011;2310;49.978;8.742;2023-04-15T14:12:54;3.13;;;1.77;;
4595;SDS011;2310;49.978;8.742;2023-04-15T14:16:57;4.60;;;1.50;;
4595;SDS011;2310;49.978;8.742;2023-04-15T14:20:58;3.70;;;2.40;;
4595;SDS011;2310;49.978;8.742;2023-04-15T14:24:59;3.27;;;2.17;;
4595;SDS011;2310;49.978;8.742;2023-04-15T14:29:02;5.60;;;3.67;;
4595;SDS011;2310;49.978;8.742;2023-04-15T14:33:04;3.47;;;2.00;;
4595;SDS011;2310;49.978;8.742;2023-04-15T14:37:05;3.30;;;1.60;;
4595;SDS011;2310;49.978;8.742;2023-04-15T14:41:07;5.20;;;1.67;;
4595;SDS011;2310;49.978;8.742;2023-04-15T14:45:09;3.07;;;1.70;;
4595;SDS011;2310;49.978;8.742;2023-04-15T14:49:11;2.87;;;1.63;;
4595;SDS011;2310;49.978;8.742;2023-04-15T14:53:12;3.13;;;1.57;;
4595;SDS011;2310;49.978;8.742;2023-04-15T14:57:13;3.80;;;2.10;;
4595;SDS011;2310;49.978;8.742;2023-04-15T15:01:15;3.70;;;1.80;;
4595;SDS011;2310;49.978;8.742;2023-04-15T15:05:16;2.80;;;1.77;;
4595;SDS011;2310;49.978;8.742;2023-04-15T15:09:17;3.93;;;1.80;;
4595;SDS011;2310;49.978;8.742;2023-04-15T15:13:19;3.73;;;1.90;;
4595;SDS011;2310;49.978;8.742;2023-04-15T15:17:20;6.53;;;2.50;;
4595;SDS011;2310;49.978;8.742;2023-04-15T15:21:22;3.00;;;2.10;;
4595;SDS011;2310;49.978;8.742;2023-04-15T15:25:23;3.17;;;1.83;;
4595;SDS011;2310;49.978;8.742;2023-04-15T15:29:24;3.27;;;1.80;;
4595;SDS011;2310;49.978;8.742;2023-04-15T15:33:25;3.57;;;1.73;;
4595;SDS011;2310;49.978;8.742;2023-04-15T15:37:29;4.20;;;2.17;;
4595;SDS011;2310;49.978;8.742;2023-04-15T15:41:31;6.30;;;2.33;;
4595;SDS011;2310;49.978;8.742;2023-04-15T15:45:33;3.43;;;2.00;;
4595;SDS011;2310;49.978;8.742;2023-04-15T15:49:35;3.63;;;2.10;;
4595;SDS011;2310;49.978;8.742;2023-04-15T15:53:36;3.33;;;1.83;;
4595;SDS011;2310;49.978;8.742;2023-04-15T15:57:40;5.20;;;3.83;;
4595;SDS011;2310;49.978;8.742;2023-04-15T16:01:41;4.00;;;3.00;;
4595;SDS011;2310;49.978;8.742;2023-04-15T16:05:43;5.10;;;2.67;;
4595;SDS011;2310;49.978;8.742;2023-04-15T16:09:44;7.33;;;2.27;;
4595;SDS011;2310;49.978;8.742;2023-04-15T16:13:45;9.83;;;6.23;;
4595;SDS011;2310;49.978;8.742;2023-04-15T16:17:46;10.67;;;6.70;;
4595;SDS011;2310;49.978;8.742;2023-04-15T16:21:48;3.17;;;1.90;;
4595;SDS011;2310;49.978;8.742;2023-04-15T16:25:49;3.63;;;1.40;;
4595;SDS011;2310;49.978;8.742;2023-04-15T16:29:51;3.97;;;2.03;;
4595;SDS011;2310;49.978;8.742;2023-04-15T16:33:52;3.53;;;2.20;;
4595;SDS011;2310;49.978;8.742;2023-04-15T16:37:53;3.20;;;1.67;;
4595;SDS011;2310;49.978;8.742;2023-04-15T16:41:55;3.17;;;1.47;;
4595;SDS011;2310;49.978;8.742;2023-04-15T16:45:57;3.20;;;1.40;;
4595;SDS011;2310;49.978;8.742;2023-04-15T16:49:58;3.00;;;1.50;;
4595;SDS011;2310;49.978;8.742;2023-04-15T16:54:00;2.90;;;1.70;;
4595;SDS011;2310;49.978;8.742;2023-04-15T16:58:01;3.13;;;1.40;;
4595;SDS011;2310;49.978;8.742;2023-04-15T17:02:04;4.40;;;2.00;;
4595;SDS011;2310;49.978;8.742;2023-04-15T17:06:05;3.40;;;1.70;;
4595;SDS011;2310;49.978;8.742;2023-04-15T17:10:06;4.03;;;1.70;;
4595;SDS011;2310;49.978;8.742;2023-04-15T17:14:09;3.50;;;1.93;;
4595;SDS011;2310;49.978;8.742;2023-04-15T17:18:11;4.63;;;1.90;;
4595;SDS011;2310;49.978;8.742;2023-04-15T17:22:12;3.00;;;1.57;;
4595;SDS011;2310;49.978;8.742;2023-04-15T17:26:13;3.10;;;1.57;;
4595;SDS011;2310;49.978;8.742;2023-04-15T17:30:15;3.47;;;2.10;;
4595;SDS011;2310;49.978;8.742;2023-04-15T17:34:16;3.33;;;1.87;;
4595;SDS011;2310;49.978;8.742;2023-04-15T17:38:19;3.87;;;2.10;;
4595;SDS011;2310;49.978;8.742;2023-04-15T17:42:20;5.17;;;2.20;;
4595;SDS011;2310;49.978;8.742;2023-04-15T17:46:23;3.53;;;2.20;;
4595;SDS011;2310;49.978;8.742;2023-04-15T17:50:25;3.83;;;2.83;;
4595;SDS011;2310;49.978;8.742;2023-04-15T17:54:27;3.97;;;2.83;;
4595;SDS011;2310;49.978;8.742;2023-04-15T17:58:29;4.57;;;3.40;;
4595;SDS011;2310;49.978;8.742;2023-04-15T18:02:31;5.77;;;3.30;;
4595;SDS011;2310;49.978;8.742;2023-04-15T18:06:34;4.07;;;2.90;;
4595;SDS011;2310;49.978;8.742;2023-04-15T18:10:37;3.57;;;2.50;;
4595;SDS011;2310;49.978;8.742;2023-04-15T18:14:39;4.70;;;3.03;;
4595;SDS011;2310;49.978;8.742;2023-04-15T18:18:40;4.80;;;2.60;;
4595;SDS011;2310;49.978;8.742;2023-04-15T18:22:42;4.60;;;2.40;;
4595;SDS011;2310;49.978;8.742;2023-04-15T18:26:43;3.40;;;2.50;;
4595;SDS011;2310;49.978;8.742;2023-04-15T18:30:45;5.03;;;2.80;;
4595;SDS011;2310;49.978;8.742;2023-04-15T18:34:47;5.07;;;3.00;;
4595;SDS011;2310;49.978;8.742;2023-04-15T18:38:49;5.90;;;2.50;;
4595;SDS011;2310;49.978;8.742;2023-04-15T18:42:50;4.90;;;2.80;;
4595;SDS011;2310;49.978;8.742;2023-04-15T18:46:52;3.40;;;2.47;;
4595;SDS011;2310;49.978;8.742;2023-04-15T18:50:54;3.80;;;2.57;;
4595;SDS011;2310;49.978;8.742;2023-04-15T18:54:58;4.70;;;2.87;;
4595;SDS011;2310;49.978;8.742;2023-04-15T18:58:59;4.23;;;2.83;;
4595;SDS011;2310;49.978;8.742;2023-04-15T19:03:02;4.57;;;2.70;;
4595;SDS011;2310;49.978;8.742;2023-04-15T19:07:06;4.27;;;2.93;;
4595;SDS011;2310;49.978;8.742;2023-04-15T19:11:09;3.53;;;2.63;;
4595;SDS011;2310;49.978;8.742;2023-04-15T19:15:11;3.87;;;3.00;;
4595;SDS011;2310;49.978;8.742;2023-04-15T19:19:13;4.40;;;2.97;;
4595;SDS011;2310;49.978;8.742;2023-04-15T19:23:15;4.70;;;2.80;;
4595;SDS011;2310;49.978;8.742;2023-04-15T19:27:16;5.30;;;3.03;;
4595;SDS011;2310;49.978;8.742;2023-04-15T19:31:18;4.93;;;3.00;;
4595;SDS011;2310;49.978;8.742;2023-04-15T19:35:24;4.30;;;2.77;;
4595;SDS011;2310;49.978;8.742;2023-04-15T19:39:25;3.80;;;2.70;;
4595;SDS011;2310;49.978;8.742;2023-04-15T19:43:30;4.10;;;2.73;;
4595;SDS011;2310;49.978;8.742;2023-04-15T19:47:33;4.80;;;2.97;;
4595;SDS011;2310;49.978;8.742;2023-04-15T19:51:35;4.20;;;3.03;;
4595;SDS011;2310;49.978;8.742;2023-04-15T19:55:36;4.03;;;2.87;;
4595;SDS011;2310;49.978;8.742;2023-04-15T19:59:39;4.13;;;2.90;;
4595;SDS011;2310;49.978;8.742;2023-04-15T20:03:40;3.83;;;3.10;;
4595;SDS011;2310;49.978;8.742;2023-04-15T20:07:43;4.20;;;2.57;;
4595;SDS011;2310;49.978;8.742;2023-04-15T20:11:47;3.77;;;2.47;;
4595;SDS011;2310;49.978;8.742;2023-04-15T20:15:50;4.70;;;2.73;;
4595;SDS011;2310;49.978;8.742;2023-04-15T20:19:52;4.07;;;2.90;;
4595;SDS011;2310;49.978;8.742;2023-04-15T20:23:53;6.57;;;4.03;;
4595;SDS011;2310;49.978;8.742;2023-04-15T20:27:55;5.07;;;4.17;;
4595;SDS011;2310;49.978;8.742;2023-04-15T20:32:00;5.30;;;3.93;;
4595;SDS011;2310;49.978;8.742;2023-04-15T20:36:02;5.90;;;4.33;;
4595;SDS011;2310;49.978;8.742;2023-04-15T20:40:04;5.50;;;3.80;;
4595;SDS011;2310;49.978;8.742;2023-04-15T20:44:07;5.63;;;4.03;;
4595;SDS011;2310;49.978;8.742;2023-04-15T20:48:08;4.73;;;3.60;;
4595;SDS011;2310;49.978;8.742;2023-04-15T20:52:11;5.17;;;3.27;;
4595;SDS011;2310;49.978;8.742;2023-04-15T20:56:13;5.87;;;3.93;;
4595;SDS011;2310;49.978;8.742;2023-04-15T21:00:15;6.30;;;4.40;;
4595;SDS011;2310;49.978;8.742;2023-04-15T21:04:17;5.53;;;3.57;;
4595;SDS011;2310;49.978;8.742;2023-04-15T21:08:19;5.30;;;4.07;;
4595;SDS011;2310;49.978;8.742;2023-04-15T21:12:23;10.10;;;5.33;;
4595;SDS011;2310;49.978;8.742;2023-04-15T21:16:25;6.60;;;5.43;;
4595;SDS011;2310;49.978;8.742;2023-04-15T21:20:27;8.30;;;5.90;;
4595;SDS011;2310;49.978;8.742;2023-04-15T21:24:29;7.80;;;6.13;;
4595;SDS011;2310;49.978;8.742;2023-04-15T21:28:31;7.90;;;7.10;;
4595;SDS011;2310;49.978;8.742;2023-04-15T21:32:33;8.20;;;7.07;;
4595;SDS011;2310;49.978;8.742;2023-04-15T21:36:35;10.80;;;8.30;;
4595;SDS011;2310;49.978;8.742;2023-04-15T21:40:38;11.20;;;9.60;;
4595;SDS011;2310;49.978;8.742;2023-04-15T21:44:40;9.90;;;8.10;;
4595;SDS011;2310;49.978;8.742;2023-04-15T21:48:42;9.53;;;8.23;;
4595;SDS011;2310;49.978;8.742;2023-04-15T21:52:45;10.00;;;7.30;;
4595;SDS011;2310;49.978;8.742;2023-04-15T21:56:47;8.53;;;7.03;;
4595;SDS011;2310;49.978;8.742;2023-04-15T22:00:51;7.63;;;6.47;;
4595;SDS011;2310;49.978;8.742;2023-04-15T22:04:55;6.90;;;5.90;;
4595;SDS011;2310;49.978;8.742;2023-04-15T22:08:57;6.63;;;5.63;;
4595;SDS011;2310;49.978;8.742;2023-04-15T22:12:59;6.37;;;5.10;;
4595;SDS011;2310;49.978;8.742;2023-04-15T22:17:02;7.50;;;5.00;;
4595;SDS011;2310;49.978;8.742;2023-04-15T22:21:04;5.83;;;5.23;;
4595;SDS011;2310;49.978;8.742;2023-04-15T22:25:06;5.77;;;4.97;;
4595;SDS011;2310;49.978;8.742;2023-04-15T22:29:08;6.30;;;4.70;;
4595;SDS011;2310;49.978;8.742;2023-04-15T22:33:11;6.40;;;5.00;;
4595;SDS011;2310;49.978;8.742;2023-04-15T22:37:12;6.83;;;4.97;;
4595;SDS011;2310;49.978;8.742;2023-04-15T22:41:13;8.03;;;5.90;;
4595;SDS011;2310;49.978;8.742;2023-04-15T22:45:15;6.40;;;5.30;;
4595;SDS011;2310;49.978;8.742;2023-04-15T22:49:17;8.40;;;4.57;;
4595;SDS011;2310;49.978;8.742;2023-04-15T22:53:18;6.60;;;5.57;;
4595;SDS011;2310;49.978;8.742;2023-04-15T22:57:21;7.10;;;5.50;;
4595;SDS011;2310;49.978;8.742;2023-04-15T23:01:22;6.10;;;4.80;;
4595;SDS011;2310;49.978;8.742;2023-04-15T23:05:24;8.40;;;6.13;;
4595;SDS011;2310;49.978;8.742;2023-04-15T23:09:25;6.63;;;5.47;;
4595;SDS011;2310;49.978;8.742;2023-04-15T23:13:27;6.97;;;5.40;;
4595;SDS011;2310;49.978;8.742;2023-04-15T23:17:29;8.60;;;6.60;;
4595;SDS011;2310;49.978;8.742;2023-04-15T23:21:31;11.33;;;6.97;;
4595;SDS011;2310;49.978;8.742;2023-04-15T23:25:32;7.07;;;4.93;;
4595;SDS011;2310;49.978;8.742;2023-04-15T23:29:33;7.80;;;5.67;;
4595;SDS011;2310;49.978;8.742;2023-04-15T23:33:36;7.63;;;5.77;;
4595;SDS011;2310;49.978;8.742;2023-04-15T23:37:39;7.63;;;6.47;;
4595;SDS011;2310;49.978;8.742;2023-04-15T23:41:41;7.60;;;6.33;;
4595;SDS011;2310;49.978;8.742;2023-04-15T23:45:42;8.47;;;6.60;;
4595;SDS011;2310;49.978;8.742;2023-04-15T23:49:44;7.83;;;6.80;;
4595;SDS011;2310;49.978;8.742;2023-04-15T23:53:46;8.97;;;6.70;;
4595;SDS011;2310;49.978;8.742;2023-04-15T23:57:48;9.57;;;7.20;;
